sensor_id;sensor_type;location;lat;lon;timestamp;pressure;altitude;pressure_sealevel;temperature;humidity
250;BME280;109;19.806;-70.704;2023-08-08T00:01:29;101632.25;;;36.86;45.11
250;BME280;109;19.806;-70.704;2023-08-08T00:03:55;101627.94;;;37.22;44.93
250;BME280;109;19.806;-70.704;2023-08-08T00:06:22;101632.84;;;37.28;44.42
250;BME280;109;19.806;-70.704;2023-08-08T00:08:48;101633.38;;;36.65;45.41
250;BME280;109;19.806;-70.704;2023-08-08T00:11:15;101631.41;;;37.15;44.93
250;BME280;109;19.806;-70.704;2023-08-08T00:13:41;101642.84;;;36.70;45.16
250;BME280;109;19.806;-70.704;2023-08-08T00:16:08;101651.88;;;36.71;45.37
250;BME280;109;19.806;-70.704;2023-08-08T00:18:35;101655.16;;;35.73;46.91
250;BME280;109;19.806;-70.704;2023-08-08T00:21:01;101665.88;;;36.16;46.73
250;BME280;109;19.806;-70.704;2023-08-08T00:23:28;101664.00;;;36.47;46.51
250;BME280;109;19.806;-70.704;2023-08-08T00:25:54;101665.09;;;36.35;46.20
250;BME280;109;19.806;-70.704;2023-08-08T00:28:21;101666.47;;;36.50;46.13
250;BME280;109;19.806;-70.704;2023-08-08T00:30:47;101662.19;;;36.57;45.88
250;BME280;109;19.806;-70.704;2023-08-08T00:33:14;101669.59;;;36.55;46.14
250;BME280;109;19.806;-70.704;2023-08-08T00:35:40;101668.13;;;36.42;46.77
250;BME280;109;19.806;-70.704;2023-08-08T00:38:07;101671.69;;;36.63;46.24
250;BME280;109;19.806;-70.704;2023-08-08T00:40:34;101665.16;;;36.54;46.23
250;BME280;109;19.806;-70.704;2023-08-08T00:43:00;101679.00;;;36.72;46.06
250;BME280;109;19.806;-70.704;2023-08-08T00:45:28;101667.19;;;37.02;45.67
250;BME280;109;19.806;-70.704;2023-08-08T00:47:54;101657.78;;;36.95;46.00
250;BME280;109;19.806;-70.704;2023-08-08T00:50:21;101668.25;;;36.71;46.38
250;BME280;109;19.806;-70.704;2023-08-08T00:52:48;101678.03;;;36.83;46.27
250;BME280;109;19.806;-70.704;2023-08-08T00:55:21;101677.47;;;36.89;46.20
250;BME280;109;19.806;-70.704;2023-08-08T00:57:48;101663.25;;;36.76;46.18
250;BME280;109;19.806;-70.704;2023-08-08T01:00:22;101660.97;;;36.90;46.12
250;BME280;109;19.806;-70.704;2023-08-08T01:02:48;101656.19;;;36.03;46.76
250;BME280;109;19.806;-70.704;2023-08-08T01:05:22;101647.75;;;36.06;46.88
250;BME280;109;19.806;-70.704;2023-08-08T01:07:57;101658.03;;;36.02;46.84
250;BME280;109;19.806;-70.704;2023-08-08T01:10:38;101663.03;;;36.18;47.31
250;BME280;109;19.806;-70.704;2023-08-08T01:13:23;101670.09;;;36.00;47.06
250;BME280;109;19.806;-70.704;2023-08-08T01:15:58;101666.00;;;35.84;46.96
250;BME280;109;19.806;-70.704;2023-08-08T01:18:26;101655.75;;;35.98;47.02
250;BME280;109;19.806;-70.704;2023-08-08T01:21:00;101663.16;;;36.16;46.81
250;BME280;109;19.806;-70.704;2023-08-08T01:26:22;101657.97;;;36.13;46.85
250;BME280;109;19.806;-70.704;2023-08-08T01:29:03;101653.34;;;36.14;46.94
250;BME280;109;19.806;-70.704;2023-08-08T01:31:30;101656.03;;;36.25;46.57
250;BME280;109;19.806;-70.704;2023-08-08T01:34:04;101655.94;;;36.36;46.53
250;BME280;109;19.806;-70.704;2023-08-08T01:39:37;101658.53;;;36.47;46.41
250;BME280;109;19.806;-70.704;2023-08-08T01:42:06;101650.47;;;36.36;46.15
250;BME280;109;19.806;-70.704;2023-08-08T01:44:41;101630.66;;;36.34;46.32
250;BME280;109;19.806;-70.704;2023-08-08T01:47:08;101637.16;;;36.12;46.79
250;BME280;109;19.806;-70.704;2023-08-08T01:49:41;101638.47;;;36.48;46.39
250;BME280;109;19.806;-70.704;2023-08-08T01:52:08;101654.19;;;36.66;45.99
250;BME280;109;19.806;-70.704;2023-08-08T01:54:42;101661.66;;;36.33;46.14
250;BME280;109;19.806;-70.704;2023-08-08T01:57:08;101666.25;;;36.33;46.56
250;BME280;109;19.806;-70.704;2023-08-08T01:59:42;101666.22;;;36.23;46.69
250;BME280;109;19.806;-70.704;2023-08-08T02:02:08;101656.59;;;36.59;46.53
250;BME280;109;19.806;-70.704;2023-08-08T02:04:42;101661.19;;;36.58;46.55
250;BME280;109;19.806;-70.704;2023-08-08T02:07:08;101656.34;;;36.72;46.32
250;BME280;109;19.806;-70.704;2023-08-08T02:09:42;101659.38;;;36.88;45.65
250;BME280;109;19.806;-70.704;2023-08-08T02:12:09;101650.47;;;36.76;46.36
250;BME280;109;19.806;-70.704;2023-08-08T02:14:49;101657.78;;;36.85;45.97
250;BME280;109;19.806;-70.704;2023-08-08T02:17:23;101659.50;;;36.77;46.10
250;BME280;109;19.806;-70.704;2023-08-08T02:19:50;101654.19;;;36.75;45.59
250;BME280;109;19.806;-70.704;2023-08-08T02:22:24;101649.28;;;36.79;45.45
250;BME280;109;19.806;-70.704;2023-08-08T02:24:52;101648.59;;;36.77;45.61
250;BME280;109;19.806;-70.704;2023-08-08T02:27:26;101646.00;;;36.66;45.61
250;BME280;109;19.806;-70.704;2023-08-08T02:30:15;101643.91;;;36.48;45.82
250;BME280;109;19.806;-70.704;2023-08-08T02:32:49;101651.16;;;36.59;45.97
250;BME280;109;19.806;-70.704;2023-08-08T02:35:15;101658.59;;;36.67;45.73
250;BME280;109;19.806;-70.704;2023-08-08T02:37:49;101658.59;;;36.67;45.54
250;BME280;109;19.806;-70.704;2023-08-08T02:40:16;101656.34;;;36.72;45.49
250;BME280;109;19.806;-70.704;2023-08-08T02:42:50;101658.69;;;36.55;45.53
250;BME280;109;19.806;-70.704;2023-08-08T02:45:16;101658.81;;;36.44;46.02
250;BME280;109;19.806;-70.704;2023-08-08T02:47:50;101658.94;;;36.43;45.19
250;BME280;109;19.806;-70.704;2023-08-08T02:50:16;101644.56;;;36.61;45.64
250;BME280;109;19.806;-70.704;2023-08-08T02:52:50;101645.69;;;36.69;45.01
250;BME280;109;19.806;-70.704;2023-08-08T02:55:18;101641.69;;;36.73;45.01
250;BME280;109;19.806;-70.704;2023-08-08T02:57:52;101646.28;;;36.62;45.26
250;BME280;109;19.806;-70.704;2023-08-08T03:00:19;101641.34;;;36.56;45.57
250;BME280;109;19.806;-70.704;2023-08-08T03:02:54;101652.50;;;36.44;45.02
250;BME280;109;19.806;-70.704;2023-08-08T03:05:20;101658.34;;;36.70;45.30
250;BME280;109;19.806;-70.704;2023-08-08T03:08:01;101656.19;;;36.83;45.32
250;BME280;109;19.806;-70.704;2023-08-08T03:10:34;101648.31;;;36.89;45.10
250;BME280;109;19.806;-70.704;2023-08-08T03:13:01;101667.69;;;36.77;44.68
250;BME280;109;19.806;-70.704;2023-08-08T03:15:35;101664.66;;;36.80;44.95
250;BME280;109;19.806;-70.704;2023-08-08T03:18:04;101663.78;;;36.79;44.92
250;BME280;109;19.806;-70.704;2023-08-08T03:20:37;101666.38;;;36.71;45.06
250;BME280;109;19.806;-70.704;2023-08-08T03:23:04;101664.25;;;36.94;44.50
250;BME280;109;19.806;-70.704;2023-08-08T03:25:39;101673.88;;;36.88;44.77
250;BME280;109;19.806;-70.704;2023-08-08T03:28:25;101676.44;;;36.71;45.08
250;BME280;109;19.806;-70.704;2023-08-08T03:30:59;101669.25;;;36.79;44.41
250;BME280;109;19.806;-70.704;2023-08-08T03:33:27;101674.44;;;36.92;44.27
250;BME280;109;19.806;-70.704;2023-08-08T03:36:03;101666.59;;;36.98;44.47
250;BME280;109;19.806;-70.704;2023-08-08T03:38:29;101659.94;;;36.82;44.17
250;BME280;109;19.806;-70.704;2023-08-08T03:41:03;101646.34;;;37.01;44.33
250;BME280;109;19.806;-70.704;2023-08-08T03:43:29;101645.16;;;36.84;44.42
250;BME280;109;19.806;-70.704;2023-08-08T03:46:03;101650.03;;;36.81;44.66
250;BME280;109;19.806;-70.704;2023-08-08T03:48:38;101647.28;;;36.81;44.26
250;BME280;109;19.806;-70.704;2023-08-08T03:51:11;101648.09;;;37.02;44.17
250;BME280;109;19.806;-70.704;2023-08-08T03:53:37;101643.69;;;36.71;44.60
250;BME280;109;19.806;-70.704;2023-08-08T03:56:11;101641.56;;;36.74;45.18
250;BME280;109;19.806;-70.704;2023-08-08T03:58:38;101630.78;;;36.82;44.80
250;BME280;109;19.806;-70.704;2023-08-08T04:01:12;101628.56;;;36.57;45.06
250;BME280;109;19.806;-70.704;2023-08-08T04:03:40;101620.19;;;36.89;44.70
250;BME280;109;19.806;-70.704;2023-08-08T04:06:13;101618.59;;;36.77;44.70
250;BME280;109;19.806;-70.704;2023-08-08T04:08:42;101621.47;;;36.66;44.83
250;BME280;109;19.806;-70.704;2023-08-08T04:11:16;101623.88;;;36.69;44.81
250;BME280;109;19.806;-70.704;2023-08-08T04:13:43;101619.16;;;36.71;44.97
250;BME280;109;19.806;-70.704;2023-08-08T04:16:16;101616.50;;;36.50;45.39
250;BME280;109;19.806;-70.704;2023-08-08T04:18:42;101619.66;;;36.45;45.26
250;BME280;109;19.806;-70.704;2023-08-08T04:21:16;101613.56;;;36.62;45.25
250;BME280;109;19.806;-70.704;2023-08-08T04:23:42;101619.19;;;36.40;45.80
250;BME280;109;19.806;-70.704;2023-08-08T04:26:16;101624.56;;;36.51;45.95
250;BME280;109;19.806;-70.704;2023-08-08T04:29:02;101617.78;;;36.36;46.14
250;BME280;109;19.806;-70.704;2023-08-08T04:31:37;101622.94;;;36.39;45.89
250;BME280;109;19.806;-70.704;2023-08-08T04:34:11;101621.50;;;36.45;46.23
250;BME280;109;19.806;-70.704;2023-08-08T04:36:45;101621.25;;;36.48;46.17
250;BME280;109;19.806;-70.704;2023-08-08T04:39:11;101618.50;;;36.08;46.75
250;BME280;109;19.806;-70.704;2023-08-08T04:41:45;101602.88;;;36.10;46.54
250;BME280;109;19.806;-70.704;2023-08-08T04:44:11;101603.25;;;36.26;46.54
250;BME280;109;19.806;-70.704;2023-08-08T04:46:45;101607.88;;;36.35;46.35
250;BME280;109;19.806;-70.704;2023-08-08T04:49:11;101599.22;;;36.30;46.37
250;BME280;109;19.806;-70.704;2023-08-08T04:51:46;101586.06;;;36.54;46.20
250;BME280;109;19.806;-70.704;2023-08-08T04:54:12;101604.88;;;36.38;45.91
250;BME280;109;19.806;-70.704;2023-08-08T04:56:46;101600.56;;;36.55;45.67
250;BME280;109;19.806;-70.704;2023-08-08T04:59:12;101605.00;;;36.37;45.83
250;BME280;109;19.806;-70.704;2023-08-08T05:01:46;101602.53;;;36.24;45.83
250;BME280;109;19.806;-70.704;2023-08-08T05:04:12;101610.47;;;36.16;46.18
250;BME280;109;19.806;-70.704;2023-08-08T05:06:46;101608.69;;;35.96;46.32
250;BME280;109;19.806;-70.704;2023-08-08T05:09:12;101618.09;;;36.12;46.58
250;BME280;109;19.806;-70.704;2023-08-08T05:11:46;101616.03;;;36.35;45.67
250;BME280;109;19.806;-70.704;2023-08-08T05:14:12;101606.72;;;36.38;45.81
250;BME280;109;19.806;-70.704;2023-08-08T05:16:46;101605.16;;;36.54;45.44
250;BME280;109;19.806;-70.704;2023-08-08T05:19:12;101595.75;;;36.58;45.51
250;BME280;109;19.806;-70.704;2023-08-08T05:21:53;101587.66;;;36.57;45.65
250;BME280;109;19.806;-70.704;2023-08-08T05:24:27;101590.06;;;36.41;45.94
250;BME280;109;19.806;-70.704;2023-08-08T05:26:53;101581.63;;;36.53;45.75
250;BME280;109;19.806;-70.704;2023-08-08T05:29:26;101581.19;;;36.48;45.86
250;BME280;109;19.806;-70.704;2023-08-08T05:32:11;101577.59;;;36.38;45.43
250;BME280;109;19.806;-70.704;2023-08-08T05:34:37;101574.75;;;36.49;45.10
250;BME280;109;19.806;-70.704;2023-08-08T05:37:11;101563.28;;;36.15;45.23
250;BME280;109;19.806;-70.704;2023-08-08T05:39:37;101557.75;;;36.17;45.10
250;BME280;109;19.806;-70.704;2023-08-08T05:42:11;101559.19;;;36.21;45.48
250;BME280;109;19.806;-70.704;2023-08-08T05:44:37;101550.75;;;36.24;45.57
250;BME280;109;19.806;-70.704;2023-08-08T05:47:11;101545.28;;;36.24;45.58
250;BME280;109;19.806;-70.704;2023-08-08T05:49:39;101541.13;;;36.20;45.73
250;BME280;109;19.806;-70.704;2023-08-08T05:52:15;101528.50;;;36.19;45.68
250;BME280;109;19.806;-70.704;2023-08-08T05:54:41;101521.31;;;36.27;45.90
250;BME280;109;19.806;-70.704;2023-08-08T05:57:15;101522.91;;;36.30;45.85
250;BME280;109;19.806;-70.704;2023-08-08T05:59:41;101517.63;;;36.38;45.25
250;BME280;109;19.806;-70.704;2023-08-08T06:02:17;101514.19;;;36.46;45.34
250;BME280;109;19.806;-70.704;2023-08-08T06:04:43;101507.13;;;36.34;45.40
250;BME280;109;19.806;-70.704;2023-08-08T06:07:17;101511.31;;;36.38;45.67
250;BME280;109;19.806;-70.704;2023-08-08T06:09:43;101499.75;;;36.15;45.54
250;BME280;109;19.806;-70.704;2023-08-08T06:12:17;101495.38;;;36.23;45.58
250;BME280;109;19.806;-70.704;2023-08-08T06:14:43;101492.66;;;36.23;45.99
250;BME280;109;19.806;-70.704;2023-08-08T06:17:24;101489.66;;;36.36;45.51
250;BME280;109;19.806;-70.704;2023-08-08T06:19:58;101489.78;;;36.35;45.30
250;BME280;109;19.806;-70.704;2023-08-08T06:22:24;101487.50;;;36.49;45.46
250;BME280;109;19.806;-70.704;2023-08-08T06:24:58;101487.94;;;36.35;45.33
250;BME280;109;19.806;-70.704;2023-08-08T06:27:24;101486.66;;;36.39;45.46
250;BME280;109;19.806;-70.704;2023-08-08T06:29:58;101486.78;;;36.38;45.68
250;BME280;109;19.806;-70.704;2023-08-08T06:32:38;101486.19;;;36.53;44.94
250;BME280;109;19.806;-70.704;2023-08-08T06:35:04;101485.63;;;36.50;45.54
250;BME280;109;19.806;-70.704;2023-08-08T06:37:39;101471.16;;;36.40;45.53
250;BME280;109;19.806;-70.704;2023-08-08T06:40:06;101473.84;;;36.30;45.64
250;BME280;109;19.806;-70.704;2023-08-08T06:42:40;101489.78;;;36.44;45.21
250;BME280;109;19.806;-70.704;2023-08-08T06:45:07;101484.75;;;36.30;45.57
250;BME280;109;19.806;-70.704;2023-08-08T06:47:42;101487.47;;;36.30;45.42
250;BME280;109;19.806;-70.704;2023-08-08T06:50:09;101482.59;;;36.34;45.73
250;BME280;109;19.806;-70.704;2023-08-08T06:52:43;101492.38;;;36.36;45.42
250;BME280;109;19.806;-70.704;2023-08-08T06:55:09;101491.38;;;36.37;45.38
250;BME280;109;19.806;-70.704;2023-08-08T06:57:44;101503.22;;;36.17;45.78
250;BME280;109;19.806;-70.704;2023-08-08T07:00:11;101518.59;;;36.18;45.97
250;BME280;109;19.806;-70.704;2023-08-08T07:02:45;101515.41;;;36.13;46.00
250;BME280;109;19.806;-70.704;2023-08-08T07:05:11;101523.09;;;35.98;46.28
250;BME280;109;19.806;-70.704;2023-08-08T07:07:45;101525.50;;;35.91;46.31
250;BME280;109;19.806;-70.704;2023-08-08T07:10:12;101529.44;;;35.99;46.69
250;BME280;109;19.806;-70.704;2023-08-08T07:12:52;101529.16;;;35.71;47.04
250;BME280;109;19.806;-70.704;2023-08-08T07:15:26;101535.94;;;35.56;47.28
250;BME280;109;19.806;-70.704;2023-08-08T07:17:53;101526.97;;;35.35;47.52
250;BME280;109;19.806;-70.704;2023-08-08T07:20:27;101533.88;;;35.69;46.93
250;BME280;109;19.806;-70.704;2023-08-08T07:22:53;101539.25;;;35.80;47.05
250;BME280;109;19.806;-70.704;2023-08-08T07:25:26;101533.53;;;35.83;46.85
250;BME280;109;19.806;-70.704;2023-08-08T07:27:52;101532.66;;;35.83;47.16
250;BME280;109;19.806;-70.704;2023-08-08T07:30:26;101526.88;;;35.76;47.17
250;BME280;109;19.806;-70.704;2023-08-08T07:33:06;101521.78;;;35.92;46.62
250;BME280;109;19.806;-70.704;2023-08-08T07:35:34;101519.53;;;36.07;46.43
250;BME280;109;19.806;-70.704;2023-08-08T07:38:08;101520.81;;;36.03;46.52
250;BME280;109;19.806;-70.704;2023-08-08T07:40:34;101514.06;;;35.98;46.65
250;BME280;109;19.806;-70.704;2023-08-08T07:43:08;101518.38;;;36.00;46.50
250;BME280;109;19.806;-70.704;2023-08-08T07:45:34;101516.00;;;35.76;46.86
250;BME280;109;19.806;-70.704;2023-08-08T07:48:07;101512.75;;;35.92;46.52
250;BME280;109;19.806;-70.704;2023-08-08T07:50:33;101516.19;;;35.84;46.52
250;BME280;109;19.806;-70.704;2023-08-08T07:53:07;101521.94;;;35.91;46.88
250;BME280;109;19.806;-70.704;2023-08-08T07:55:33;101524.09;;;35.87;46.59
250;BME280;109;19.806;-70.704;2023-08-08T07:58:07;101521.13;;;36.00;46.69
250;BME280;109;19.806;-70.704;2023-08-08T08:00:41;101521.00;;;36.11;46.32
250;BME280;109;19.806;-70.704;2023-08-08T08:03:15;101532.16;;;35.99;46.79
250;BME280;109;19.806;-70.704;2023-08-08T08:05:41;101538.31;;;36.01;46.97
250;BME280;109;19.806;-70.704;2023-08-08T08:08:15;101536.72;;;35.98;46.65
250;BME280;109;19.806;-70.704;2023-08-08T08:10:41;101542.09;;;35.79;47.17
250;BME280;109;19.806;-70.704;2023-08-08T08:13:15;101547.94;;;35.74;47.29
250;BME280;109;19.806;-70.704;2023-08-08T08:15:41;101541.63;;;35.74;47.31
250;BME280;109;19.806;-70.704;2023-08-08T08:18:15;101556.13;;;35.53;47.17
250;BME280;109;19.806;-70.704;2023-08-08T08:20:46;101554.28;;;35.54;47.05
250;BME280;109;19.806;-70.704;2023-08-08T08:23:20;101579.25;;;35.59;47.17
250;BME280;109;19.806;-70.704;2023-08-08T08:25:46;101589.31;;;34.63;48.68
250;BME280;109;19.806;-70.704;2023-08-08T08:28:21;101568.09;;;34.88;48.55
250;BME280;109;19.806;-70.704;2023-08-08T08:31:07;101558.53;;;35.05;47.99
250;BME280;109;19.806;-70.704;2023-08-08T08:33:41;101547.56;;;35.16;47.87
250;BME280;109;19.806;-70.704;2023-08-08T08:36:07;101538.28;;;34.98;47.99
250;BME280;109;19.806;-70.704;2023-08-08T08:38:41;101548.69;;;34.93;47.74
250;BME280;109;19.806;-70.704;2023-08-08T08:41:08;101545.97;;;35.14;47.53
250;BME280;109;19.806;-70.704;2023-08-08T08:43:45;101553.09;;;35.05;48.07
250;BME280;109;19.806;-70.704;2023-08-08T08:46:14;101563.50;;;34.89;47.91
250;BME280;109;19.806;-70.704;2023-08-08T08:49:00;101572.44;;;34.37;48.23
250;BME280;109;19.806;-70.704;2023-08-08T08:51:36;101576.91;;;34.81;47.93
250;BME280;109;19.806;-70.704;2023-08-08T08:54:03;101585.13;;;35.02;47.82
250;BME280;109;19.806;-70.704;2023-08-08T08:56:45;101599.16;;;35.18;47.35
250;BME280;109;19.806;-70.704;2023-08-08T08:59:31;101594.53;;;34.98;47.85
250;BME280;109;19.806;-70.704;2023-08-08T09:02:05;101599.41;;;35.15;47.85
250;BME280;109;19.806;-70.704;2023-08-08T09:04:33;101594.34;;;34.78;48.66
250;BME280;109;19.806;-70.704;2023-08-08T09:07:07;101596.69;;;35.15;48.02
250;BME280;109;19.806;-70.704;2023-08-08T09:09:35;101598.84;;;35.00;48.50
250;BME280;109;19.806;-70.704;2023-08-08T09:12:10;101607.03;;;34.89;48.54
250;BME280;109;19.806;-70.704;2023-08-08T09:14:42;101607.56;;;34.94;48.76
250;BME280;109;19.806;-70.704;2023-08-08T09:17:15;101603.56;;;34.98;48.44
250;BME280;109;19.806;-70.704;2023-08-08T09:19:45;101591.16;;;35.26;48.27
250;BME280;109;19.806;-70.704;2023-08-08T09:22:19;101584.25;;;35.33;47.95
250;BME280;109;19.806;-70.704;2023-08-08T09:24:45;101590.66;;;35.32;47.11
250;BME280;109;19.806;-70.704;2023-08-08T09:27:19;101592.13;;;35.36;46.92
250;BME280;109;19.806;-70.704;2023-08-08T09:30:07;101593.31;;;35.22;47.02
250;BME280;109;19.806;-70.704;2023-08-08T09:32:43;101587.72;;;35.24;46.80
250;BME280;109;19.806;-70.704;2023-08-08T09:35:11;101582.63;;;35.31;46.72
250;BME280;109;19.806;-70.704;2023-08-08T09:37:54;101586.34;;;35.30;46.24
250;BME280;109;19.806;-70.704;2023-08-08T09:40:27;101589.25;;;35.17;46.01
250;BME280;109;19.806;-70.704;2023-08-08T09:42:56;101586.97;;;35.01;45.84
250;BME280;109;19.806;-70.704;2023-08-08T09:45:39;101574.91;;;34.94;45.97
250;BME280;109;19.806;-70.704;2023-08-08T09:48:14;101572.88;;;35.07;45.95
250;BME280;109;19.806;-70.704;2023-08-08T09:50:43;101570.75;;;35.32;45.83
250;BME280;109;19.806;-70.704;2023-08-08T09:53:18;101573.84;;;35.27;45.47
250;BME280;109;19.806;-70.704;2023-08-08T09:55:46;101563.41;;;35.11;45.82
250;BME280;109;19.806;-70.704;2023-08-08T09:58:20;101552.41;;;35.13;45.77
250;BME280;109;19.806;-70.704;2023-08-08T10:00:49;101558.16;;;34.99;45.64
250;BME280;109;19.806;-70.704;2023-08-08T10:03:23;101550.09;;;35.08;45.67
250;BME280;109;19.806;-70.704;2023-08-08T10:05:49;101553.16;;;34.94;45.53
250;BME280;109;19.806;-70.704;2023-08-08T10:08:22;101555.59;;;34.97;45.21
250;BME280;109;19.806;-70.704;2023-08-08T10:10:50;101563.19;;;34.82;45.57
250;BME280;109;19.806;-70.704;2023-08-08T10:13:26;101578.16;;;34.77;45.45
250;BME280;109;19.806;-70.704;2023-08-08T10:15:54;101581.66;;;34.68;45.61
250;BME280;109;19.806;-70.704;2023-08-08T10:18:27;101569.81;;;34.89;45.23
250;BME280;109;19.806;-70.704;2023-08-08T10:20:54;101570.47;;;34.93;44.66
250;BME280;109;19.806;-70.704;2023-08-08T10:23:37;101586.38;;;34.98;45.15
250;BME280;109;19.806;-70.704;2023-08-08T10:26:19;101584.19;;;35.12;45.34
250;BME280;109;19.806;-70.704;2023-08-08T10:29:07;101597.53;;;35.15;44.56
250;BME280;109;19.806;-70.704;2023-08-08T10:31:41;101594.09;;;35.13;44.65
250;BME280;109;19.806;-70.704;2023-08-08T10:37:29;101608.56;;;35.14;44.41
250;BME280;109;19.806;-70.704;2023-08-08T10:40:03;101625.66;;;34.62;44.69
250;BME280;109;19.806;-70.704;2023-08-08T10:42:45;101629.19;;;34.73;45.19
250;BME280;109;19.806;-70.704;2023-08-08T10:45:19;101640.72;;;34.66;44.58
250;BME280;109;19.806;-70.704;2023-08-08T10:47:45;101644.78;;;34.71;44.94
250;BME280;109;19.806;-70.704;2023-08-08T10:50:22;101648.28;;;34.62;44.65
250;BME280;109;19.806;-70.704;2023-08-08T10:52:53;101658.00;;;34.76;44.66
250;BME280;109;19.806;-70.704;2023-08-08T10:55:26;101677.97;;;35.08;44.46
250;BME280;109;19.806;-70.704;2023-08-08T10:57:58;101696.91;;;34.87;44.68
250;BME280;109;19.806;-70.704;2023-08-08T11:00:30;101702.03;;;34.70;44.33
250;BME280;109;19.806;-70.704;2023-08-08T11:02:58;101701.59;;;34.85;44.07
250;BME280;109;19.806;-70.704;2023-08-08T11:05:28;101710.63;;;34.97;43.76
250;BME280;109;19.806;-70.704;2023-08-08T11:07:56;101728.50;;;34.57;44.05
250;BME280;109;19.806;-70.704;2023-08-08T11:10:23;101733.66;;;34.60;43.87
250;BME280;109;19.806;-70.704;2023-08-08T11:13:01;101741.56;;;34.29;44.26
250;BME280;109;19.806;-70.704;2023-08-08T11:15:31;101739.59;;;34.42;44.14
250;BME280;109;19.806;-70.704;2023-08-08T11:17:59;101741.84;;;34.02;44.38
250;BME280;109;19.806;-70.704;2023-08-08T11:20:30;101747.72;;;34.31;44.24
250;BME280;109;19.806;-70.704;2023-08-08T11:22:58;101758.59;;;34.31;44.10
250;BME280;109;19.806;-70.704;2023-08-08T11:25:29;101751.47;;;34.64;43.94
250;BME280;109;19.806;-70.704;2023-08-08T11:27:58;101767.03;;;34.62;43.70
250;BME280;109;19.806;-70.704;2023-08-08T11:30:29;101763.88;;;34.33;43.70
250;BME280;109;19.806;-70.704;2023-08-08T11:32:56;101784.44;;;34.02;43.58
250;BME280;109;19.806;-70.704;2023-08-08T11:35:24;101792.91;;;33.86;44.12
250;BME280;109;19.806;-70.704;2023-08-08T11:37:56;101801.31;;;34.18;43.78
250;BME280;109;19.806;-70.704;2023-08-08T11:40:26;101807.25;;;34.23;43.52
250;BME280;109;19.806;-70.704;2023-08-08T11:42:54;101812.72;;;33.28;43.73
250;BME280;109;19.806;-70.704;2023-08-08T11:45:21;101810.34;;;33.95;43.53
250;BME280;109;19.806;-70.704;2023-08-08T11:47:52;101806.84;;;33.81;43.56
250;BME280;109;19.806;-70.704;2023-08-08T11:50:20;101806.19;;;34.02;43.64
250;BME280;109;19.806;-70.704;2023-08-08T11:52:52;101799.44;;;33.83;44.03
250;BME280;109;19.806;-70.704;2023-08-08T11:55:27;101799.72;;;33.92;44.36
250;BME280;109;19.806;-70.704;2023-08-08T11:57:55;101808.00;;;33.90;44.46
250;BME280;109;19.806;-70.704;2023-08-08T12:00:29;101793.06;;;33.96;44.42
250;BME280;109;19.806;-70.704;2023-08-08T12:02:57;101779.41;;;34.08;44.39
250;BME280;109;19.806;-70.704;2023-08-08T12:05:24;101774.44;;;34.60;43.76
250;BME280;109;19.806;-70.704;2023-08-08T12:07:51;101759.47;;;34.87;43.27
250;BME280;109;19.806;-70.704;2023-08-08T12:10:20;101752.16;;;34.88;43.21
250;BME280;109;19.806;-70.704;2023-08-08T12:12:51;101746.72;;;34.88;43.16
250;BME280;109;19.806;-70.704;2023-08-08T12:15:19;101727.22;;;34.83;43.50
250;BME280;109;19.806;-70.704;2023-08-08T12:17:46;101725.69;;;35.12;43.23
250;BME280;109;19.806;-70.704;2023-08-08T12:20:15;101708.44;;;35.23;42.85
250;BME280;109;19.806;-70.704;2023-08-08T12:22:41;101711.75;;;35.06;42.79
250;BME280;109;19.806;-70.704;2023-08-08T12:25:08;101698.56;;;35.33;42.45
250;BME280;109;19.806;-70.704;2023-08-08T12:27:35;101683.50;;;35.18;42.55
250;BME280;109;19.806;-70.704;2023-08-08T12:30:01;101684.06;;;35.33;42.88
250;BME280;109;19.806;-70.704;2023-08-08T12:32:28;101680.25;;;35.35;42.29
250;BME280;109;19.806;-70.704;2023-08-08T12:34:57;101668.97;;;35.29;42.27
250;BME280;109;19.806;-70.704;2023-08-08T12:37:24;101669.50;;;35.22;42.39
250;BME280;109;19.806;-70.704;2023-08-08T12:39:50;101671.94;;;35.37;42.59
250;BME280;109;19.806;-70.704;2023-08-08T12:42:17;101678.06;;;35.18;42.23
250;BME280;109;19.806;-70.704;2023-08-08T12:44:44;101680.91;;;34.62;41.80
250;BME280;109;19.806;-70.704;2023-08-08T12:47:13;101694.03;;;34.57;41.50
250;BME280;109;19.806;-70.704;2023-08-08T12:49:40;101688.66;;;34.78;41.77
250;BME280;109;19.806;-70.704;2023-08-08T12:52:06;101692.59;;;34.85;41.46
250;BME280;109;19.806;-70.704;2023-08-08T12:54:33;101687.56;;;35.35;41.00
250;BME280;109;19.806;-70.704;2023-08-08T12:56:59;101696.03;;;35.41;40.99
250;BME280;109;19.806;-70.704;2023-08-08T12:59:26;101700.50;;;34.99;40.25
250;BME280;109;19.806;-70.704;2023-08-08T13:01:52;101701.72;;;35.06;40.60
250;BME280;109;19.806;-70.704;2023-08-08T13:04:19;101715.97;;;35.42;40.29
250;BME280;109;19.806;-70.704;2023-08-08T13:06:47;101713.13;;;35.43;40.37
250;BME280;109;19.806;-70.704;2023-08-08T13:09:14;101721.94;;;35.24;40.81
250;BME280;109;19.806;-70.704;2023-08-08T13:11:41;101725.00;;;35.42;40.41
250;BME280;109;19.806;-70.704;2023-08-08T13:14:08;101731.56;;;35.29;40.49
250;BME280;109;19.806;-70.704;2023-08-08T13:16:34;101730.56;;;35.41;40.74
250;BME280;109;19.806;-70.704;2023-08-08T13:19:01;101731.56;;;35.40;41.46
250;BME280;109;19.806;-70.704;2023-08-08T13:21:28;101742.34;;;35.62;41.29
250;BME280;109;19.806;-70.704;2023-08-08T13:23:54;101747.59;;;35.54;41.12
250;BME280;109;19.806;-70.704;2023-08-08T13:26:21;101767.56;;;35.64;40.72
250;BME280;109;19.806;-70.704;2023-08-08T13:28:47;101776.63;;;35.21;40.88
250;BME280;109;19.806;-70.704;2023-08-08T13:31:16;101780.91;;;35.46;41.26
250;BME280;109;19.806;-70.704;2023-08-08T13:33:42;101774.91;;;35.20;41.96
250;BME280;109;19.806;-70.704;2023-08-08T13:36:09;101764.06;;;35.09;42.02
250;BME280;109;19.806;-70.704;2023-08-08T13:38:35;101774.88;;;35.64;41.70